Data Viewer
| City | State | Eastern Time | Source | 1 Hour Temp Max | 1 Hour Temp Min | 1 Hour Dew Point Max | 1 Hour Dew Point Min | 1 Hour RH Max | 1 Hour RH Min | 1 Hour BP Max | 1 Hour BP Min | 1 Hour Precip | 1 Hour Wind Max | 1 Hour Wind Max Dir |
|---|---|---|---|---|---|---|---|---|---|---|---|---|---|---|
| Berkeley Twp. | NJ | 2026-05-04 06:00 | Mesonet | 43 | 42 | 38 | 37 | 84 | 80 | 29.99 | 29.99 | 0.00 | 11 | WSW |
| Berkeley Twp. | NJ | 2026-05-04 19:00 | Mesonet | 69 | 67 | 48 | 46 | 48 | 44 | 29.85 | 29.84 | 0.00 | 24 | WSW |
| Berkeley Twp. | NJ | 2026-05-05 04:00 | Mesonet | 57 | 56 | 53 | 52 | 88 | 85 | 29.87 | 29.85 | 0.00 | 15 | S |
| Berkeley Twp. | NJ | 2026-05-05 03:00 | Mesonet | 57 | 57 | 53 | 52 | 87 | 85 | 29.86 | 29.85 | 0.00 | 13 | SSW |
| Berkeley Twp. | NJ | 2026-05-05 02:00 | Mesonet | 57 | 56 | 53 | 52 | 86 | 84 | 29.87 | 29.86 | 0.00 | 13 | SSW |
| Berkeley Twp. | NJ | 2026-05-05 01:00 | Mesonet | 58 | 57 | 52 | 51 | 85 | 78 | 29.88 | 29.87 | 0.00 | 12 | SSW |
| Berkeley Twp. | NJ | 2026-05-05 00:00 | Mesonet | 59 | 58 | 52 | 49 | 78 | 70 | 29.89 | 29.88 | 0.00 | 12 | SSW |
| Berkeley Twp. | NJ | 2026-05-04 23:00 | Mesonet | 59 | 58 | 50 | 49 | 72 | 70 | 29.89 | 29.88 | 0.00 | 11 | SSW |
| Berkeley Twp. | NJ | 2026-05-04 22:00 | Mesonet | 60 | 58 | 50 | 49 | 70 | 67 | 29.89 | 29.88 | 0.00 | 12 | S |
| Berkeley Twp. | NJ | 2026-05-04 21:00 | Mesonet | 62 | 59 | 50 | 48 | 70 | 60 | 29.88 | 29.86 | 0.00 | 15 | S |
| Berkeley Twp. | NJ | 2026-05-04 20:00 | Mesonet | 67 | 62 | 48 | 45 | 60 | 47 | 29.86 | 29.85 | 0.00 | 22 | SSW |
| Berkeley Twp. | NJ | 2026-05-04 18:00 | Mesonet | 71 | 69 | 48 | 46 | 46 | 42 | 29.85 | 29.83 | 0.00 | 26 | WSW |
| Berkeley Twp. | NJ | 2026-05-04 07:00 | Mesonet | 48 | 43 | 41 | 38 | 84 | 78 | 30.00 | 29.99 | 0.00 | 14 | WSW |
| Berkeley Twp. | NJ | 2026-05-04 17:00 | Mesonet | 75 | 71 | 50 | 40 | 46 | 29 | 29.85 | 29.83 | 0.00 | 26 | W |
| Berkeley Twp. | NJ | 2026-05-04 16:00 | Mesonet | 76 | 73 | 43 | 38 | 32 | 26 | 29.87 | 29.84 | 0.00 | 21 | SW |
| Berkeley Twp. | NJ | 2026-05-04 15:00 | Mesonet | 74 | 72 | 43 | 37 | 35 | 27 | 29.89 | 29.86 | 0.00 | 22 | SSW |
| Berkeley Twp. | NJ | 2026-05-04 14:00 | Mesonet | 74 | 70 | 44 | 37 | 34 | 29 | 29.91 | 29.89 | 0.00 | 27 | WSW |
| Berkeley Twp. | NJ | 2026-05-04 13:00 | Mesonet | 71 | 69 | 42 | 37 | 37 | 29 | 29.93 | 29.90 | 0.00 | 27 | SW |
| Berkeley Twp. | NJ | 2026-05-04 12:00 | Mesonet | 70 | 66 | 45 | 38 | 45 | 33 | 29.95 | 29.93 | 0.00 | 24 | SW |
| Berkeley Twp. | NJ | 2026-05-04 11:00 | Mesonet | 67 | 64 | 44 | 40 | 45 | 40 | 29.96 | 29.94 | 0.00 | 25 | SW |
| Berkeley Twp. | NJ | 2026-05-04 10:00 | Mesonet | 65 | 61 | 43 | 39 | 51 | 39 | 29.98 | 29.95 | 0.00 | 27 | SW |
| Berkeley Twp. | NJ | 2026-05-04 09:00 | Mesonet | 61 | 54 | 45 | 42 | 69 | 51 | 29.99 | 29.97 | 0.00 | 20 | SW |
| Berkeley Twp. | NJ | 2026-05-04 08:00 | Mesonet | 55 | 47 | 45 | 41 | 79 | 68 | 29.99 | 29.98 | 0.00 | 17 | WSW |
| Berkeley Twp. | NJ | 2026-05-05 05:00 | Mesonet | SW |
data collection created in 0.0074129104614258 (queried in 0.001783) rendered in: 5.1975250244141E-5

